Terminal Aerodrome Forecast
Issued by NWS Sterling, VA

Current Version | Previous Version | Text Only | Print | Product List | Glossary Off
Versions: 1 2 3 4 5 6 7 8 9 10 11 12 13 14 15 16 17 18 19 20 21 22 23 24 25 26 27

448
FTUS41 KLWX 271402 AAA
TAFDCA
TAF AMD
KDCA 271402Z 2714/2812 18006KT 2SM BR OVC008
     FM271600 21006KT P6SM BKN025
     FM271900 22009KT P6SM BKN050
     FM272300 18006KT P6SM BKN050=

USA.gov is the U.S. government's official web portal to all federal, state and local government web resources and services.